Time;durP1;ratioP1;P1;durP2;ratioP2;P2;SDS_P1;SDS_P2;PMS_P1;PMS_P2;Temp;Humidity;BMP_temperature;BMP_pressure;BME280_temperature;BME280_humidity;BME280_pressure;Samples;Min_cycle;Max_cycle;Signal;HPM_P1;HPM_P2
2023/08/03 00:01:33;;;;;;;2.83;0.50;;;18.10;99.90;;;;;;6213473;23;20805;-87
2023/08/03 00:04:00;;;;;;;2.13;0.85;;;18.10;99.90;;;;;;6186449;23;20058;-86
2023/08/03 00:06:27;;;;;;;1.95;0.80;;;18.10;99.90;;;;;;6213545;23;20000;-86
2023/08/03 00:08:53;;;;;;;1.15;0.50;;;18.10;99.90;;;;;;6214958;23;20001;-87
2023/08/03 00:11:18;;;;;;;1.38;0.55;;;18.10;99.90;;;;;;6214274;23;20008;-85
2023/08/03 00:13:44;;;;;;;2.38;0.60;;;18.00;99.90;;;;;;6215223;23;20610;-86
2023/08/03 00:16:09;;;;;;;2.60;0.80;;;18.00;99.90;;;;;;6214343;23;20019;-85
2023/08/03 00:18:35;;;;;;;1.63;0.70;;;18.00;99.90;;;;;;6188085;23;20135;-84
2023/08/03 00:21:01;;;;;;;1.48;0.70;;;18.00;99.90;;;;;;6214746;23;20000;-86
2023/08/03 00:23:26;;;;;;;2.53;0.80;;;18.00;99.90;;;;;;6213892;23;19997;-86
2023/08/03 00:25:54;;;;;;;1.88;0.70;;;18.00;99.90;;;;;;6215360;23;20016;-86
2023/08/03 00:28:21;;;;;;;3.25;0.60;;;18.00;99.90;;;;;;6213732;23;20001;-85
2023/08/03 00:30:47;;;;;;;0.93;0.60;;;18.00;99.90;;;;;;6214530;23;20000;-85
2023/08/03 00:33:12;;;;;;;1.83;0.70;;;18.00;99.90;;;;;;6214299;23;20373;-86
2023/08/03 00:35:38;;;;;;;2.35;1.05;;;18.10;99.90;;;;;;6187905;23;20012;-86
2023/08/03 00:38:03;;;;;;;2.17;0.90;;;18.10;99.90;;;;;;6213787;23;19999;-86
2023/08/03 00:40:29;;;;;;;2.22;0.70;;;18.10;99.90;;;;;;6214761;23;20000;-86
2023/08/03 00:42:55;;;;;;;2.08;0.80;;;18.10;99.90;;;;;;6219833;23;20047;-86
2023/08/03 00:45:21;;;;;;;3.13;1.17;;;18.10;99.90;;;;;;6193345;23;20044;-87
2023/08/03 00:47:46;;;;;;;1.70;1.25;;;18.20;99.90;;;;;;6226123;23;20012;-88
2023/08/03 00:50:12;;;;;;;2.55;0.85;;;18.10;99.90;;;;;;6216053;23;20005;-87
2023/08/03 00:52:38;;;;;;;3.00;1.30;;;18.10;99.90;;;;;;6214708;23;20047;-87
2023/08/03 00:55:04;;;;;;;1.55;1.15;;;18.10;99.90;;;;;;6214531;23;20051;-86
2023/08/03 00:57:30;;;;;;;4.32;1.77;;;18.10;99.90;;;;;;6215228;23;20001;-87
2023/08/03 00:59:56;;;;;;;3.67;1.73;;;18.10;99.90;;;;;;6216017;23;20001;-89
2023/08/03 01:02:22;;;;;;;2.75;1.70;;;18.10;99.90;;;;;;6215600;23;20493;-88
2023/08/03 01:04:48;;;;;;;3.47;1.73;;;18.10;99.90;;;;;;6216527;23;20001;-90
2023/08/03 01:07:13;;;;;;;3.88;2.15;;;18.10;99.90;;;;;;6215165;23;20032;-89
2023/08/03 01:09:39;;;;;;;3.53;2.20;;;18.10;99.90;;;;;;6216499;23;20009;-87
2023/08/03 01:12:05;;;;;;;7.60;3.10;;;18.10;99.90;;;;;;6216452;23;20418;-90
2023/08/03 01:14:31;;;;;;;6.40;2.65;;;18.10;99.90;;;;;;6239785;22;20001;-90
2023/08/03 01:16:56;;;;;;;3.45;2.13;;;18.10;99.90;;;;;;6229434;22;20043;-88
2023/08/03 01:19:22;;;;;;;6.93;2.33;;;18.10;99.90;;;;;;6215672;23;20004;-84
2023/08/03 01:21:49;;;;;;;6.47;3.00;;;18.10;99.90;;;;;;6214425;23;19997;-84
2023/08/03 01:24:14;;;;;;;6.63;2.58;;;18.10;99.90;;;;;;6214403;23;20001;-91
2023/08/03 01:26:42;;;;;;;3.50;1.20;;;18.10;99.90;;;;;;6214093;23;20335;-88
2023/08/03 01:29:07;;;;;;;3.95;0.80;;;18.00;99.90;;;;;;6215234;23;20000;-88
2023/08/03 01:31:34;;;;;;;2.85;1.02;;;18.00;99.90;;;;;;6215796;23;20288;-87
2023/08/03 01:34:00;;;;;;;4.18;1.08;;;18.00;99.90;;;;;;6215122;23;20008;-90
2023/08/03 01:36:26;;;;;;;4.78;1.13;;;18.00;99.90;;;;;;6215082;23;20015;-89
2023/08/03 01:39:04;;;;;;;2.42;1.00;;;18.00;99.90;;;;;;6231347;23;19992;-87
2023/08/03 01:41:29;;;;;;;2.85;1.00;;;18.00;99.90;;;;;;6205867;23;20028;-87
2023/08/03 01:44:27;;;;;;;4.47;1.80;;;18.00;99.90;;;;;;6209005;23;20008;-90
2023/08/03 01:46:55;;;;;;;5.45;2.63;;;18.00;99.90;;;;;;6241170;22;20127;-89
2023/08/03 01:49:22;;;;;;;7.65;2.47;;;18.00;99.90;;;;;;6239996;23;20005;-91
2023/08/03 01:51:48;;;;;;;5.43;2.28;;;18.00;99.90;;;;;;6220959;23;20024;-90
2023/08/03 01:54:14;;;;;;;7.22;2.70;;;18.00;99.90;;;;;;6215934;23;20500;-89
2023/08/03 01:56:40;;;;;;;5.18;2.60;;;18.00;99.90;;;;;;6215726;23;20442;-89
2023/08/03 01:59:06;;;;;;;6.57;2.30;;;18.00;99.90;;;;;;6215409;23;20027;-87
2023/08/03 02:01:31;;;;;;;8.18;2.53;;;18.10;99.90;;;;;;6188830;23;20000;-87
2023/08/03 02:03:57;;;;;;;8.60;2.83;;;18.10;99.90;;;;;;6215344;23;20001;-89
2023/08/03 02:06:23;;;;;;;4.72;2.30;;;18.10;99.90;;;;;;6214963;23;20489;-88
2023/08/03 02:08:48;;;;;;;6.90;2.38;;;18.10;99.90;;;;;;6214883;23;20054;-88
2023/08/03 02:11:14;;;;;;;3.53;2.40;;;18.20;99.90;;;;;;6214184;23;20438;-87
2023/08/03 02:13:39;;;;;;;3.80;1.95;;;18.20;99.90;;;;;;6214268;23;20004;-86
2023/08/03 02:16:10;;;;;;;5.63;2.50;;;18.20;99.90;;;;;;6214269;23;20004;-87
2023/08/03 02:18:37;;;;;;;5.22;2.17;;;18.20;99.90;;;;;;6214912;23;20000;-88
2023/08/03 02:21:03;;;;;;;6.32;2.50;;;18.30;99.90;;;;;;6214374;23;20418;-86
2023/08/03 02:23:29;;;;;;;6.93;2.70;;;18.30;99.90;;;;;;6214746;23;20011;-89
2023/08/03 02:25:55;;;;;;;5.70;3.05;;;18.30;99.90;;;;;;6214694;23;20036;-89
2023/08/03 02:28:20;;;;;;;5.40;2.83;;;18.30;99.90;;;;;;6214648;23;20015;-88
2023/08/03 02:30:46;;;;;;;5.88;3.53;;;18.30;99.90;;;;;;6214676;23;20100;-88
2023/08/03 02:33:11;;;;;;;7.78;2.63;;;18.30;99.90;;;;;;6214256;23;20005;-86
2023/08/03 02:35:39;;;;;;;6.43;3.35;;;18.40;99.90;;;;;;6213695;23;20334;-90
2023/08/03 02:38:08;;;;;;;11.90;3.50;;;18.30;99.90;;;;;;6214361;23;20024;-88
2023/08/03 02:40:34;;;;;;;6.30;2.83;;;18.30;99.90;;;;;;6214199;23;20422;-89
2023/08/03 02:42:59;;;;;;;8.43;2.92;;;18.30;99.90;;;;;;6214482;23;20011;-87
2023/08/03 02:45:25;;;;;;;6.55;2.78;;;18.30;99.90;;;;;;6187517;23;20015;-88
2023/08/03 02:47:51;;;;;;;7.43;2.78;;;18.40;99.90;;;;;;6214398;23;20009;-89
2023/08/03 02:50:17;;;;;;;9.18;3.35;;;18.30;99.90;;;;;;6213751;23;20108;-88
2023/08/03 02:52:42;;;;;;;6.68;2.78;;;18.30;99.90;;;;;;6214367;23;20009;-88
2023/08/03 02:55:08;;;;;;;6.72;3.72;;;18.40;99.90;;;;;;6213474;23;20004;-88
2023/08/03 02:57:34;;;;;;;7.80;3.50;;;18.40;99.90;;;;;;6213476;23;20008;-88
2023/08/03 02:59:59;;;;;;;6.20;3.05;;;18.30;99.90;;;;;;6187950;23;20008;-90
2023/08/03 03:02:25;;;;;;;7.15;3.25;;;18.30;99.90;;;;;;6214046;23;19997;-89
2023/08/03 03:04:50;;;;;;;7.63;3.20;;;18.30;99.90;;;;;;6214352;23;20004;-93
2023/08/03 03:07:16;;;;;;;6.78;3.83;;;18.30;99.90;;;;;;6214894;23;20011;-92
2023/08/03 03:09:41;;;;;;;11.50;4.07;;;18.30;99.90;;;;;;6215057;23;20027;-89
2023/08/03 03:12:07;;;;;;;6.20;3.80;;;18.30;99.90;;;;;;6214207;23;20001;-89
2023/08/03 03:14:35;;;;;;;9.20;3.65;;;18.30;99.90;;;;;;6214263;23;20005;-90
2023/08/03 03:17:01;;;;;;;6.28;2.95;;;18.30;99.90;;;;;;6214293;23;20004;-90
2023/08/03 03:19:26;;;;;;;6.47;3.17;;;18.40;99.90;;;;;;6214234;23;20024;-90
2023/08/03 03:21:52;;;;;;;9.02;3.72;;;18.30;99.90;;;;;;6214473;23;19996;-91
2023/08/03 03:24:17;;;;;;;4.15;1.67;;;18.30;99.90;;;;;;6214328;23;20000;-91
2023/08/03 03:26:43;;;;;;;7.88;2.60;;;18.30;99.90;;;;;;6214729;23;20004;-92
2023/08/03 03:29:09;;;;;;;3.53;2.30;;;18.30;99.90;;;;;;6214713;23;20031;-93
2023/08/03 03:31:34;;;;;;;4.03;1.70;;;18.30;99.90;;;;;;6214373;23;20004;-92
2023/08/03 03:34:00;;;;;;;4.50;1.85;;;18.30;99.90;;;;;;6214265;23;19993;-92
2023/08/03 03:36:25;;;;;;;2.22;1.92;;;18.30;99.90;;;;;;6214364;23;20012;-91
2023/08/03 03:38:51;;;;;;;4.07;2.50;;;18.20;99.90;;;;;;6214559;23;20005;-91
2023/08/03 03:41:16;;;;;;;5.55;2.40;;;18.20;99.90;;;;;;6213603;23;20058;-92
2023/08/03 03:43:42;;;;;;;4.00;3.10;;;18.20;99.90;;;;;;6214776;23;19997;-92
2023/08/03 03:46:07;;;;;;;3.97;3.08;;;18.20;99.90;;;;;;6214489;23;20011;-93
2023/08/03 03:48:33;;;;;;;7.38;3.83;;;18.20;99.90;;;;;;6214723;23;20020;-92
2023/08/03 03:50:59;;;;;;;5.10;3.13;;;18.20;99.90;;;;;;6236214;22;20005;-95
2023/08/03 03:53:24;;;;;;;3.72;3.42;;;18.20;99.90;;;;;;6212318;23;20020;-92
2023/08/03 03:55:50;;;;;;;4.35;3.20;;;18.20;99.90;;;;;;6221899;23;20008;-92
2023/08/03 03:58:15;;;;;;;3.00;2.75;;;18.20;99.90;;;;;;6215035;23;20004;-94
2023/08/03 04:00:41;;;;;;;3.72;2.88;;;18.10;99.90;;;;;;6216394;23;19993;-96
2023/08/03 04:03:07;;;;;;;3.83;2.58;;;18.10;99.90;;;;;;6216010;23;20000;-93
2023/08/03 04:05:34;;;;;;;3.63;1.83;;;18.10;99.90;;;;;;6216475;23;20034;-92
2023/08/03 04:08:01;;;;;;;4.90;2.22;;;18.00;99.90;;;;;;6216538;23;20012;-93
2023/08/03 04:10:27;;;;;;;5.75;2.13;;;18.00;99.90;;;;;;6214970;23;19997;-94
2023/08/03 04:12:53;;;;;;;7.85;2.25;;;18.00;99.90;;;;;;6215041;23;20009;-95
2023/08/03 04:15:18;;;;;;;4.57;2.55;;;18.00;99.90;;;;;;6226055;22;20024;-93
2023/08/03 04:17:48;;;;;;;6.55;2.33;;;18.00;99.90;;;;;;6237859;23;20009;-92
2023/08/03 04:20:17;;;;;;;7.88;2.88;;;18.00;99.90;;;;;;6222162;23;19997;-90
2023/08/03 04:22:43;;;;;;;7.25;3.05;;;18.00;99.90;;;;;;6241018;22;19992;-90
2023/08/03 04:25:09;;;;;;;5.50;3.25;;;18.00;99.90;;;;;;6227176;22;20463;-91
2023/08/03 04:27:35;;;;;;;6.03;3.15;;;18.00;99.90;;;;;;6218407;23;20005;-91
2023/08/03 04:30:00;;;;;;;7.65;3.83;;;18.00;99.90;;;;;;6214859;23;20007;-91
2023/08/03 04:32:26;;;;;;;7.35;4.03;;;18.00;99.90;;;;;;6214739;23;20000;-90
2023/08/03 04:34:52;;;;;;;6.93;3.92;;;18.00;99.90;;;;;;6213693;23;20043;-90
2023/08/03 04:37:18;;;;;;;5.15;3.45;;;18.00;99.90;;;;;;6214243;23;20004;-89
2023/08/03 04:39:43;;;;;;;9.43;3.30;;;18.00;99.90;;;;;;6214785;23;20319;-90
2023/08/03 04:42:09;;;;;;;5.30;2.95;;;18.00;99.90;;;;;;6213385;23;20024;-89
2023/08/03 04:44:34;;;;;;;9.25;4.07;;;18.10;99.90;;;;;;6214212;23;20008;-95
2023/08/03 04:47:00;;;;;;;7.57;2.67;;;18.10;99.90;;;;;;6214556;23;20028;-92
2023/08/03 04:49:26;;;;;;;6.15;2.33;;;18.10;99.90;;;;;;6213930;23;19996;-92
2023/08/03 04:51:52;;;;;;;5.30;2.08;;;18.10;99.90;;;;;;6214384;23;20012;-92
2023/08/03 04:54:18;;;;;;;5.18;1.73;;;18.00;99.90;;;;;;6216067;23;20012;-95
2023/08/03 04:56:44;;;;;;;9.30;1.95;;;18.10;99.90;;;;;;6216312;23;20009;-92
2023/08/03 04:59:09;;;;;;;4.45;1.45;;;18.00;99.90;;;;;;6215478;23;20012;-90
2023/08/03 05:01:35;;;;;;;7.05;1.65;;;18.00;99.90;;;;;;6216253;23;20024;-93
2023/08/03 05:04:00;;;;;;;12.90;1.90;;;18.00;99.90;;;;;;6215761;23;20051;-92
2023/08/03 05:06:27;;;;;;;7.32;1.75;;;18.10;99.90;;;;;;6215947;23;20008;-93
2023/08/03 05:08:52;;;;;;;8.20;1.85;;;18.00;99.90;;;;;;6189931;23;20005;-90
2023/08/03 05:11:18;;;;;;;7.35;1.75;;;18.00;99.90;;;;;;6215522;23;20020;-89
2023/08/03 05:13:43;;;;;;;5.90;1.50;;;18.10;99.90;;;;;;6215421;23;20001;-91
2023/08/03 05:16:09;;;;;;;5.03;1.55;;;18.10;99.90;;;;;;6215045;23;20074;-91
2023/08/03 05:18:34;;;;;;;8.35;1.40;;;18.10;99.90;;;;;;6215440;23;20043;-89
2023/08/03 05:21:00;;;;;;;5.13;1.30;;;18.10;99.90;;;;;;6215933;23;19997;-89
2023/08/03 05:23:26;;;;;;;5.78;1.40;;;18.10;99.90;;;;;;6215477;23;20011;-90
2023/08/03 05:25:55;;;;;;;8.48;2.55;;;18.10;99.90;;;;;;6216294;23;20008;-90
2023/08/03 05:28:22;;;;;;;8.30;1.95;;;18.10;99.90;;;;;;6222776;23;20000;-96
2023/08/03 05:30:48;;;;;;;3.92;1.13;;;18.10;99.90;;;;;;6220561;23;20008;-87
2023/08/03 05:33:14;;;;;;;2.17;0.80;;;18.10;99.90;;;;;;6231361;23;20071;-94
2023/08/03 05:35:40;;;;;;;3.70;1.45;;;18.00;99.90;;;;;;6237394;23;20005;-92
2023/08/03 05:38:05;;;;;;;4.28;1.40;;;18.00;99.90;;;;;;6235933;23;20028;-90
2023/08/03 05:40:31;;;;;;;7.35;1.60;;;18.00;99.90;;;;;;6223334;23;20087;-92
2023/08/03 05:42:57;;;;;;;6.22;1.40;;;18.00;99.90;;;;;;6194142;23;20008;-93
2023/08/03 05:45:37;;;;;;;5.63;1.50;;;18.00;99.90;;;;;;6220458;23;20007;-94
2023/08/03 05:48:03;;;;;;;6.13;1.35;;;18.10;99.90;;;;;;6192214;23;20422;-96
2023/08/03 05:50:29;;;;;;;6.07;1.10;;;18.10;99.90;;;;;;6216065;23;20007;-92
2023/08/03 05:52:56;;;;;;;6.78;1.50;;;18.10;99.90;;;;;;6216747;23;20054;-92
2023/08/03 05:55:22;;;;;;;5.40;1.80;;;18.10;99.90;;;;;;6216086;23;20016;-92
2023/08/03 05:57:48;;;;;;;4.70;0.93;;;18.10;99.90;;;;;;6216329;23;20072;-92
2023/08/03 06:00:21;;;;;;;5.90;1.30;;;18.10;99.90;;;;;;6215839;23;20067;-89
2023/08/03 06:02:47;;;;;;;9.85;1.48;;;18.10;99.90;;;;;;6216191;23;20426;-93
2023/08/03 06:05:44;;;;;;;5.75;1.60;;;18.10;99.90;;;;;;6214271;23;20080;-84
2023/08/03 06:08:23;;;;;;;5.88;1.73;;;18.20;99.90;;;;;;6212735;23;20009;-84
2023/08/03 06:10:54;;;;;;;6.00;1.40;;;18.10;99.90;;;;;;6213206;23;20000;-84
2023/08/03 06:13:27;;;;;;;7.47;2.13;;;18.10;99.90;;;;;;6211967;23;20435;-85
2023/08/03 06:15:53;;;;;;;4.35;1.40;;;18.20;99.90;;;;;;6213078;23;20008;-85
2023/08/03 06:18:20;;;;;;;5.53;1.83;;;18.20;99.90;;;;;;6212464;23;20004;-84
2023/08/03 06:20:48;;;;;;;4.45;1.23;;;18.20;99.90;;;;;;6213124;23;20327;-83
2023/08/03 06:23:17;;;;;;;5.60;1.30;;;18.20;99.90;;;;;;6212663;23;20083;-82
2023/08/03 06:25:42;;;;;;;8.18;1.88;;;18.20;99.90;;;;;;6212831;23;20055;-84
2023/08/03 06:28:10;;;;;;;11.50;2.17;;;18.20;99.90;;;;;;6212080;23;20001;-84
2023/08/03 06:30:36;;;;;;;6.25;2.15;;;18.20;99.90;;;;;;6212956;23;20115;-85
2023/08/03 06:33:02;;;;;;;7.20;2.25;;;18.20;99.90;;;;;;6212556;23;20004;-85
2023/08/03 06:35:43;;;;;;;8.73;1.77;;;18.20;99.90;;;;;;6212911;23;20001;-85
2023/08/03 06:38:12;;;;;;;6.80;1.48;;;18.20;99.90;;;;;;6212422;23;20071;-84
2023/08/03 06:40:41;;;;;;;8.90;1.80;;;18.20;99.90;;;;;;6211955;23;19997;-86
2023/08/03 06:43:09;;;;;;;7.97;1.55;;;18.20;99.90;;;;;;6185737;23;20330;-87
2023/08/03 06:45:35;;;;;;;9.57;2.08;;;18.20;99.90;;;;;;6212939;23;20005;-86
2023/08/03 06:48:02;;;;;;;8.20;1.50;;;18.20;99.90;;;;;;6213006;23;20084;-86
2023/08/03 06:50:32;;;;;;;5.45;1.50;;;18.30;99.90;;;;;;6213452;23;20028;-85
2023/08/03 06:52:58;;;;;;;8.25;1.58;;;18.30;99.90;;;;;;6215522;23;20024;-87
2023/08/03 06:55:25;;;;;;;7.88;1.95;;;18.30;99.90;;;;;;6216570;23;20004;-86
2023/08/03 06:57:50;;;;;;;7.25;1.40;;;18.40;99.90;;;;;;6213202;23;20080;-86
2023/08/03 07:00:17;;;;;;;6.20;1.88;;;18.40;99.90;;;;;;6215025;23;19997;-86
2023/08/03 07:02:44;;;;;;;5.30;1.38;;;18.50;99.90;;;;;;6212611;23;20069;-86
2023/08/03 07:05:10;;;;;;;10.13;2.42;;;18.50;99.90;;;;;;6211328;23;20256;-86
2023/08/03 07:07:35;;;;;;;8.27;1.40;;;18.50;99.90;;;;;;6186301;23;20422;-86
2023/08/03 07:10:01;;;;;;;8.85;1.63;;;18.50;99.90;;;;;;6211659;23;20004;-84
2023/08/03 07:12:27;;;;;;;10.50;1.88;;;18.60;99.90;;;;;;6212138;23;20031;-85
2023/08/03 07:14:53;;;;;;;6.35;1.42;;;18.50;99.90;;;;;;6211837;23;20009;-85
2023/08/03 07:17:18;;;;;;;7.07;2.25;;;18.50;99.90;;;;;;6182752;23;20035;-86
2023/08/03 07:19:44;;;;;;;6.10;1.25;;;18.50;99.90;;;;;;6212450;23;20430;-85
2023/08/03 07:22:10;;;;;;;4.85;1.02;;;18.50;99.90;;;;;;6211784;23;20004;-86
2023/08/03 07:24:36;;;;;;;3.65;1.42;;;18.50;99.90;;;;;;6212099;23;20001;-87
2023/08/03 07:27:02;;;;;;;3.85;1.52;;;18.50;99.90;;;;;;6211435;23;20000;-85
2023/08/03 07:29:29;;;;;;;4.43;1.20;;;18.50;99.90;;;;;;6212572;23;19997;-87
2023/08/03 07:31:55;;;;;;;9.88;1.90;;;18.50;99.90;;;;;;6212569;23;20005;-86
2023/08/03 07:34:21;;;;;;;5.10;1.15;;;18.50;99.90;;;;;;6211219;23;19997;-85
2023/08/03 07:36:50;;;;;;;4.03;1.30;;;18.50;99.90;;;;;;6212437;23;20019;-86
2023/08/03 07:39:15;;;;;;;4.78;1.05;;;18.60;99.90;;;;;;6210196;23;20016;-83
2023/08/03 07:41:41;;;;;;;5.70;1.23;;;18.70;99.90;;;;;;6212128;23;20001;-86
2023/08/03 07:44:07;;;;;;;5.85;1.33;;;18.70;99.90;;;;;;6211906;23;20011;-86
2023/08/03 07:46:32;;;;;;;7.63;1.98;;;18.70;99.90;;;;;;6212202;23;20340;-85
2023/08/03 07:48:58;;;;;;;3.67;1.10;;;18.70;99.90;;;;;;6210505;23;19997;-86
2023/08/03 07:51:23;;;;;;;4.32;1.55;;;18.80;99.90;;;;;;6211445;23;19996;-81
2023/08/03 07:53:50;;;;;;;4.93;0.98;;;18.90;99.90;;;;;;6211497;23;20039;-83
2023/08/03 07:56:17;;;;;;;4.82;1.38;;;18.90;99.90;;;;;;6210990;23;20418;-85
2023/08/03 07:58:47;;;;;;;4.43;1.40;;;18.90;99.90;;;;;;6212208;23;20076;-85
2023/08/03 08:01:13;;;;;;;6.22;1.00;;;18.90;99.90;;;;;;6209031;23;19996;-86
2023/08/03 08:03:39;;;;;;;7.63;1.50;;;18.90;99.90;;;;;;6212616;23;20180;-87
2023/08/03 08:06:14;;;;;;;5.05;1.23;;;18.90;99.90;;;;;;6211407;23;20021;-86
2023/08/03 08:08:39;;;;;;;3.75;1.38;;;18.90;99.90;;;;;;6211386;23;20009;-86
2023/08/03 08:11:05;;;;;;;7.85;1.50;;;18.90;99.90;;;;;;6210448;23;20418;-88
2023/08/03 08:13:31;;;;;;;3.50;0.98;;;18.90;99.90;;;;;;6212788;23;20015;-86
2023/08/03 08:16:06;;;;;;;5.25;1.67;;;18.90;99.90;;;;;;6212143;23;20422;-85
2023/08/03 08:18:33;;;;;;;5.80;1.40;;;18.80;99.90;;;;;;6211777;23;19996;-86
2023/08/03 08:21:01;;;;;;;2.15;1.13;;;18.80;99.90;;;;;;6184912;23;20004;-86
2023/08/03 08:23:27;;;;;;;6.88;1.67;;;18.80;99.90;;;;;;6210170;23;20035;-85
2023/08/03 08:25:52;;;;;;;7.20;1.40;;;18.80;99.90;;;;;;6210885;23;20008;-86
2023/08/03 08:28:18;;;;;;;10.73;2.13;;;18.80;99.90;;;;;;6186063;23;20707;-86
2023/08/03 08:30:44;;;;;;;6.68;2.42;;;18.90;99.90;;;;;;6213960;23;20012;-87
2023/08/03 08:33:10;;;;;;;6.18;1.60;;;18.90;99.90;;;;;;6212007;23;20012;-86
2023/08/03 08:35:36;;;;;;;5.30;2.28;;;19.00;99.90;;;;;;6213746;23;20099;-85
2023/08/03 08:38:04;;;;;;;5.13;1.55;;;19.00;99.90;;;;;;6212971;23;20442;-85
2023/08/03 08:40:33;;;;;;;5.20;1.38;;;19.00;99.90;;;;;;6213504;23;20005;-85
2023/08/03 08:42:59;;;;;;;6.95;2.17;;;19.00;99.90;;;;;;6212813;23;20043;-83
2023/08/03 08:45:25;;;;;;;8.45;1.90;;;19.00;99.90;;;;;;6211630;23;20034;-88
2023/08/03 08:47:51;;;;;;;8.73;2.30;;;19.00;99.90;;;;;;6187740;23;20011;-85
2023/08/03 08:50:16;;;;;;;10.95;3.50;;;19.00;99.90;;;;;;6213399;23;20016;-85
2023/08/03 08:52:44;;;;;;;11.05;2.92;;;19.00;99.90;;;;;;6186690;23;20032;-85
2023/08/03 08:55:14;;;;;;;5.53;2.20;;;19.10;99.90;;;;;;6212780;23;20067;-86
2023/08/03 08:57:39;;;;;;;7.13;2.45;;;19.30;99.90;;;;;;6214578;23;20007;-88
2023/08/03 09:00:06;;;;;;;6.78;2.20;;;19.40;99.90;;;;;;6213320;23;20076;-86
2023/08/03 09:02:32;;;;;;;5.97;2.65;;;19.60;99.90;;;;;;6186348;23;20001;-86
2023/08/03 09:05:14;;;;;;;7.40;2.45;;;19.80;99.90;;;;;;6214422;23;20004;-85
2023/08/03 09:07:40;;;;;;;6.15;1.98;;;20.00;99.90;;;;;;6211524;23;20012;-83
2023/08/03 09:10:06;;;;;;;4.40;2.08;;;19.90;99.90;;;;;;6185501;23;20076;-86
2023/08/03 09:12:32;;;;;;;6.97;2.33;;;19.80;99.90;;;;;;6186102;23;20532;-86
2023/08/03 09:14:58;;;;;;;3.80;2.10;;;19.70;99.90;;;;;;6212907;23;20072;-86
2023/08/03 09:17:24;;;;;;;6.20;3.10;;;19.60;99.90;;;;;;6212231;23;19997;-86
2023/08/03 09:19:54;;;;;;;7.13;3.47;;;19.60;99.90;;;;;;6212506;23;20322;-86
2023/08/03 09:22:22;;;;;;;9.00;4.20;;;19.70;99.90;;;;;;6211528;23;20058;-84
2023/08/03 09:25:00;;;;;;;6.65;3.95;;;19.80;99.90;;;;;;6214628;23;20638;-80
2023/08/03 09:27:27;;;;;;;12.43;4.30;;;20.10;99.90;;;;;;6208700;23;20008;-81
2023/08/03 09:29:59;;;;;;;10.90;3.78;;;20.20;99.90;;;;;;6184042;23;20008;-81
2023/08/03 09:32:34;;;;;;;8.85;3.13;;;20.40;99.90;;;;;;6210837;23;20024;-82
2023/08/03 09:35:01;;;;;;;6.85;3.92;;;20.60;99.90;;;;;;6210904;23;20009;-83
2023/08/03 09:37:36;;;;;;;8.95;3.15;;;20.70;99.90;;;;;;6184131;23;20012;-82
2023/08/03 09:40:05;;;;;;;8.25;3.40;;;20.90;99.90;;;;;;6182229;23;20438;-84
2023/08/03 09:42:32;;;;;;;8.10;3.22;;;21.00;99.90;;;;;;6210427;23;19997;-84
2023/08/03 09:45:03;;;;;;;8.52;3.45;;;21.00;99.90;;;;;;6210931;23;20603;-84
2023/08/03 09:47:30;;;;;;;10.77;3.58;;;21.00;99.90;;;;;;6211710;23;20027;-85
2023/08/03 09:49:56;;;;;;;6.68;3.05;;;21.10;99.90;;;;;;6209978;23;19996;-84
2023/08/03 09:52:28;;;;;;;3.72;1.90;;;21.10;99.90;;;;;;6211581;23;20004;-85
2023/08/03 09:55:01;;;;;;;7.88;2.60;;;21.30;99.90;;;;;;6207798;23;20016;-85
2023/08/03 09:57:28;;;;;;;;;;;21.50;99.90;;;;;;6213387;23;20072;-87
2023/08/03 10:00:06;;;;;;;5.95;1.77;;;21.70;99.90;;;;;;6210451;23;20314;-84
2023/08/03 10:02:38;;;;;;;5.78;1.98;;;21.90;99.90;;;;;;6235192;23;20063;-81
2023/08/03 10:05:06;;;;;;;4.20;1.70;;;22.00;99.90;;;;;;6209983;23;20023;-80
2023/08/03 10:07:36;;;;;;;8.43;2.58;;;22.10;99.90;;;;;;6212593;23;20427;-81
2023/08/03 10:10:04;;;;;;;6.38;2.33;;;22.20;99.90;;;;;;6212470;23;20004;-81
2023/08/03 10:12:37;;;;;;;5.80;1.55;;;22.10;99.90;;;;;;6209084;23;20013;-80
2023/08/03 10:15:08;;;;;;;5.03;2.05;;;22.20;99.90;;;;;;6211753;23;20005;-80
2023/08/03 10:17:34;;;;;;;5.18;2.58;;;22.20;99.90;;;;;;6211092;23;20031;-81
2023/08/03 10:20:02;;;;;;;7.57;2.25;;;22.20;99.90;;;;;;6211641;23;20011;-80
2023/08/03 10:22:28;;;;;;;4.22;1.63;;;22.30;99.90;;;;;;6209038;23;20012;-80
2023/08/03 10:25:19;;;;;;;4.45;1.60;;;22.40;99.90;;;;;;6210465;23;20009;-83
2023/08/03 10:28:11;;;;;;;3.85;1.45;;;22.40;99.90;;;;;;6213202;23;20059;-82
2023/08/03 10:31:07;;;;;;;4.10;1.50;;;22.50;99.90;;;;;;6211650;23;20028;-82
2023/08/03 10:33:50;;;;;;;5.10;1.92;;;22.50;99.90;;;;;;6210264;23;20024;-81
2023/08/03 10:36:31;;;;;;;3.78;1.70;;;22.70;99.90;;;;;;6210705;23;20079;-82
2023/08/03 10:39:02;;;;;;;6.10;1.50;;;22.80;99.90;;;;;;6210369;23;19996;-82
2023/08/03 10:41:37;;;;;;;3.08;1.02;;;22.80;99.90;;;;;;6213015;23;19996;-89
2023/08/03 10:44:06;;;;;;;5.50;1.63;;;22.40;99.90;;;;;;6214048;23;20067;-89
2023/08/03 10:46:41;;;;;;;2.35;0.60;;;21.90;99.90;;;;;;6213616;23;20031;-90
2023/08/03 10:49:19;;;;;;;4.15;1.08;;;21.40;99.90;;;;;;6213791;23;20000;-88
2023/08/03 10:51:52;;;;;;;3.83;1.23;;;20.90;99.90;;;;;;6215000;23;19997;-92
2023/08/03 10:54:28;;;;;;;6.85;1.38;;;20.60;99.90;;;;;;6215539;23;20013;-93
2023/08/03 10:57:12;;;;;;;3.65;1.00;;;20.30;99.90;;;;;;6216452;23;20044;-92
2023/08/03 10:59:45;;;;;;;4.15;1.27;;;20.10;99.90;;;;;;6188895;23;20414;-93
2023/08/03 11:02:18;;;;;;;2.90;0.80;;;20.00;99.90;;;;;;6188298;23;20004;-93
2023/08/03 11:04:45;;;;;;;2.20;1.30;;;19.90;99.90;;;;;;6215549;23;20001;-93
2023/08/03 11:07:14;;;;;;;3.78;1.02;;;19.90;99.90;;;;;;6187052;23;20055;-93
2023/08/03 11:09:40;;;;;;;4.53;1.50;;;19.90;99.90;;;;;;6187386;23;20721;-93
2023/08/03 11:12:08;;;;;;;1.98;1.20;;;20.10;99.90;;;;;;6215656;23;20032;-92
2023/08/03 11:14:37;;;;;;;4.30;1.15;;;20.20;99.90;;;;;;6215921;23;20098;-93
2023/08/03 11:17:02;;;;;;;4.05;1.02;;;20.30;99.90;;;;;;6188322;23;20005;-93
2023/08/03 11:19:32;;;;;;;3.90;1.65;;;20.40;99.90;;;;;;6215503;23;20049;-91
2023/08/03 11:22:02;;;;;;;3.47;1.10;;;20.50;99.90;;;;;;6214913;23;19997;-92
2023/08/03 11:24:31;;;;;;;4.95;2.22;;;20.50;99.90;;;;;;6214972;23;20039;-88
2023/08/03 11:26:57;;;;;;;4.28;1.50;;;20.50;99.90;;;;;;6214215;23;20004;-88
2023/08/03 11:29:23;;;;;;;4.15;1.75;;;20.40;99.90;;;;;;6213269;23;20008;-88
2023/08/03 11:31:50;;;;;;;4.00;1.92;;;20.30;99.90;;;;;;6187735;23;20136;-93
2023/08/03 11:34:16;;;;;;;3.30;1.52;;;20.30;99.90;;;;;;6212568;23;20447;-87
2023/08/03 11:36:48;;;;;;;4.68;1.83;;;20.30;99.90;;;;;;6213469;23;20063;-91
2023/08/03 11:39:13;;;;;;;3.55;1.90;;;20.30;99.90;;;;;;6214013;23;20485;-85
2023/08/03 11:41:40;;;;;;;5.07;1.52;;;20.30;99.90;;;;;;6230560;23;20001;-89
2023/08/03 11:44:08;;;;;;;3.15;1.05;;;20.30;99.90;;;;;;6196751;23;20449;-89
2023/08/03 11:46:34;;;;;;;3.25;1.25;;;20.30;99.90;;;;;;6215363;23;20034;-88
2023/08/03 11:49:02;;;;;;;2.03;1.17;;;20.30;99.90;;;;;;6215333;23;20423;-89
2023/08/03 11:51:36;;;;;;;4.47;1.40;;;20.30;99.90;;;;;;6215209;23;20011;-88
2023/08/03 11:54:12;;;;;;;4.10;1.52;;;20.30;99.90;;;;;;6200333;23;20012;-89
2023/08/03 11:56:39;;;;;;;5.70;2.20;;;20.30;99.90;;;;;;6215569;23;20012;-88
2023/08/03 11:59:08;;;;;;;4.97;1.48;;;20.30;99.90;;;;;;6215746;23;19996;-88
2023/08/03 12:01:43;;;;;;;4.00;1.83;;;20.30;99.90;;;;;;6217551;23;20001;-89
2023/08/03 12:04:10;;;;;;;4.45;2.20;;;20.30;99.90;;;;;;6214262;23;20335;-88
2023/08/03 12:07:06;;;;;;;3.70;1.58;;;20.30;99.90;;;;;;6226635;23;20005;-88
2023/08/03 12:09:40;;;;;;;4.15;1.50;;;20.30;99.90;;;;;;6188172;23;20009;-88
2023/08/03 12:12:09;;;;;;;5.90;1.60;;;20.20;99.90;;;;;;6214507;23;20005;-87
2023/08/03 12:14:34;;;;;;;4.32;0.95;;;20.10;99.90;;;;;;6213644;23;20001;-86
2023/08/03 12:17:00;;;;;;;4.18;0.98;;;20.00;99.90;;;;;;6211521;23;20312;-90
2023/08/03 12:19:32;;;;;;;4.65;0.80;;;19.80;99.90;;;;;;6212627;23;20001;-89
2023/08/03 12:22:01;;;;;;;3.65;1.23;;;19.80;99.90;;;;;;6213662;23;20000;-88
2023/08/03 12:24:27;;;;;;;4.47;1.80;;;19.70;99.90;;;;;;6213439;23;20004;-89
2023/08/03 12:26:53;;;;;;;2.60;0.95;;;19.70;99.90;;;;;;6212418;23;20494;-87
2023/08/03 12:29:19;;;;;;;1.58;0.90;;;19.80;99.90;;;;;;6212850;23;20090;-89
2023/08/03 12:31:44;;;;;;;3.40;1.08;;;20.10;99.90;;;;;;6212740;23;20071;-89
2023/08/03 12:34:10;;;;;;;4.38;0.90;;;20.40;99.90;;;;;;6212514;23;20005;-89
2023/08/03 12:36:36;;;;;;;7.07;1.10;;;20.50;99.90;;;;;;6212639;23;20001;-85
2023/08/03 12:39:01;;;;;;;3.40;0.90;;;20.60;99.90;;;;;;6212744;23;20008;-84
2023/08/03 12:41:27;;;;;;;4.43;1.02;;;20.40;99.90;;;;;;6212307;23;20012;-88
2023/08/03 12:43:52;;;;;;;4.43;1.15;;;20.30;99.90;;;;;;6210366;23;20058;-84
2023/08/03 12:46:18;;;;;;;1.65;0.45;;;20.10;99.90;;;;;;6210175;23;20488;-88
2023/08/03 12:48:45;;;;;;;3.42;0.63;;;20.00;99.90;;;;;;6212818;23;20011;-90